Página principal
METAR-TAF:

METAR-TAF

Aeroportos :

Sparrevohn, Alasca, Estados Unidos

latitude: 61-06N, longitude: 155-34W, altura: 484 m

Observação actual do tempo

O boletim foi feito há 48 minutos, às 19:55 UTC
Vento 4 kt com direcção variável
Temperatura 17°C
Humidade 59%
Pressão 1016 hPa
Visibilidade: 16.1 km
Céu limpo

METAR: PASV 171955Z AUTO VRB04KT 10SM CLR 17/09 A3001 RMK AO2 LTG DSNT NE SLP149 T01730086

Hora: 12:43 (20:43 UTC)


TAF: em falta

Observações e previsões do tempo de mais de 4000 aeroportos (mensagens METAR e TAF).

As estações disponíveis são os pontos amarelos e vermelhos sobre o mapa.

Mova o rato sobre o mapa para ver o nome da estação.

Depois clique no ponto para visualizar as observações e previsões meteorológicas.

Para alterar o mapa : clique nos botões verdes com uma cruz preta para aumentar o zoom; no botão verde com uma pitada de zoom; ou nas setas verdes para mapas adjacentes.


METAR-TAF: